createdAt,value
2023-04-06T10:57:57.065Z,9.70
2023-04-06T10:58:57.123Z,14.60
2023-04-06T10:59:57.050Z,13.20
2023-04-06T11:00:57.054Z,14.30
2023-04-06T11:01:57.105Z,12.80
2023-04-06T11:02:57.043Z,12.50
2023-04-06T11:03:57.016Z,13.30
2023-04-06T11:04:56.947Z,14.10
2023-04-06T11:05:56.965Z,14.60
2023-04-06T11:06:56.959Z,12.90
2023-04-06T11:07:56.915Z,13.60
2023-04-06T11:08:56.877Z,14.50
2023-04-06T11:10:11.623Z,12.40
2023-04-06T11:10:56.848Z,13.50
2023-04-06T11:11:56.875Z,12.90
2023-04-06T11:12:56.937Z,13.40
2023-04-06T11:13:56.801Z,14.20
2023-04-06T11:14:56.813Z,13.90
2023-04-06T11:15:56.777Z,13.00
2023-04-06T11:16:56.800Z,14.90
2023-04-06T11:17:56.887Z,14.00
2023-04-06T11:18:56.722Z,13.40
2023-04-06T11:19:56.750Z,13.30
2023-04-06T11:20:56.695Z,13.80
2023-04-06T11:21:58.116Z,13.80
2023-04-06T11:22:56.682Z,15.20
2023-04-06T11:23:56.674Z,12.90
2023-04-06T11:24:56.665Z,12.80
2023-04-06T11:25:56.658Z,14.40
2023-04-06T11:26:56.665Z,12.60
2023-04-06T11:27:56.601Z,13.40
2023-04-06T11:28:56.597Z,12.90
2023-04-06T11:29:56.600Z,13.50
2023-04-06T11:30:56.591Z,13.10
2023-04-06T11:31:56.538Z,13.80
2023-04-06T11:32:56.546Z,14.70
2023-04-06T11:33:56.566Z,13.70
2023-04-06T11:34:56.561Z,13.70
2023-04-06T11:35:56.487Z,13.90
2023-04-06T11:36:56.461Z,15.20
2023-04-06T11:37:57.535Z,14.70
2023-04-06T11:38:56.433Z,13.10
2023-04-06T11:39:56.455Z,14.00
2023-04-06T11:40:56.421Z,14.10
2023-04-06T11:41:56.416Z,13.20
2023-04-06T11:42:56.407Z,13.20
2023-04-06T11:43:56.366Z,12.50
2023-04-06T11:44:56.375Z,12.70
2023-04-06T11:45:56.417Z,12.30
2023-04-06T11:46:56.337Z,14.90
2023-04-06T11:47:56.384Z,12.20
2023-04-06T11:48:56.350Z,15.10
2023-04-06T11:50:05.761Z,15.40
2023-04-06T11:50:56.262Z,13.20
2023-04-06T11:51:56.272Z,14.40
2023-04-06T11:52:56.249Z,12.50
2023-04-06T11:53:56.228Z,11.80
2023-04-06T11:54:56.213Z,13.10
2023-04-06T11:55:56.193Z,11.80
2023-04-06T11:56:56.174Z,12.90
2023-04-06T11:57:56.187Z,12.30
2023-04-06T11:58:56.162Z,12.10
2023-04-06T11:59:56.165Z,13.10
2023-04-06T12:00:56.134Z,14.60
2023-04-06T12:01:56.143Z,12.20
2023-04-06T12:02:56.193Z,14.20
2023-04-06T12:03:56.238Z,13.30
2023-04-06T12:04:56.070Z,12.50
2023-04-06T12:05:56.734Z,13.50
2023-04-06T12:06:56.046Z,10.40
2023-04-06T12:07:56.280Z,12.10
2023-04-06T12:08:56.025Z,10.40
2023-04-06T12:09:56.020Z,14.40
2023-04-06T12:10:55.983Z,12.30
2023-04-06T12:11:55.978Z,11.90
2023-04-06T12:12:55.932Z,14.60
2023-04-06T12:13:55.947Z,12.00
2023-04-06T12:14:55.936Z,13.60
2023-04-06T12:15:55.972Z,12.60
2023-04-06T12:16:55.905Z,13.60
2023-04-06T12:17:55.927Z,11.80
2023-04-06T12:18:55.866Z,12.90
2023-04-06T12:19:57.171Z,11.50
2023-04-06T12:20:55.838Z,11.40
2023-04-06T12:21:55.854Z,12.40
2023-04-06T12:22:55.811Z,13.90
2023-04-06T12:23:55.812Z,12.50
2023-04-06T12:24:55.776Z,12.40
2023-04-06T12:25:55.834Z,12.50
2023-04-06T12:27:06.923Z,11.50
2023-04-06T12:27:55.731Z,11.50
2023-04-06T12:28:55.705Z,10.60
2023-04-06T12:29:55.710Z,11.20
2023-04-06T12:30:55.706Z,13.20
2023-04-06T12:31:55.795Z,13.70
2023-04-06T12:32:55.717Z,13.10
2023-04-06T12:33:55.665Z,11.10
2023-04-06T12:34:55.634Z,13.00
2023-04-06T12:35:55.641Z,12.60
2023-04-06T12:36:55.691Z,15.90
2023-04-06T12:37:55.605Z,13.40
2023-04-06T12:38:55.593Z,11.30
2023-04-06T12:39:55.592Z,12.10
2023-04-06T12:40:55.559Z,10.80
2023-04-06T12:41:55.529Z,12.00
2023-04-06T12:42:55.533Z,13.10
2023-04-06T12:43:55.503Z,13.60
2023-04-06T12:44:55.506Z,12.30
2023-04-06T12:45:55.476Z,14.80
2023-04-06T12:46:55.504Z,12.90
2023-04-06T12:47:55.499Z,13.90
2023-04-06T12:48:55.444Z,13.50
2023-04-06T12:49:55.454Z,12.50
2023-04-06T12:50:55.420Z,12.60
2023-04-06T12:51:55.413Z,11.10
2023-04-06T12:52:55.376Z,12.70
2023-04-06T12:53:55.387Z,11.80
2023-04-06T12:54:55.357Z,12.40
2023-04-06T12:55:55.334Z,11.40
2023-04-06T12:56:55.343Z,12.60
2023-04-06T12:57:55.309Z,9.40
2023-04-06T12:58:55.378Z,12.00
2023-04-06T12:59:55.438Z,10.30
2023-04-06T13:00:55.314Z,10.40
2023-04-06T13:01:55.313Z,12.10
2023-04-06T13:02:55.280Z,10.30
2023-04-06T13:03:55.226Z,9.80
2023-04-06T13:04:55.236Z,8.50
2023-04-06T13:05:55.229Z,12.00
2023-04-06T13:06:55.182Z,8.80
2023-04-06T13:07:55.182Z,10.00
2023-04-06T13:08:55.171Z,10.50
2023-04-06T13:09:55.157Z,8.60
2023-04-06T13:10:55.141Z,8.90
2023-04-06T13:11:55.145Z,8.80
2023-04-06T13:12:55.116Z,9.40
2023-04-06T13:13:55.115Z,9.70
2023-04-06T13:14:55.082Z,7.40
2023-04-06T13:15:55.158Z,8.30
2023-04-06T13:16:55.255Z,8.00
2023-04-06T13:17:56.399Z,9.10
2023-04-06T13:18:55.011Z,7.50
2023-04-06T13:19:55.036Z,7.50
2023-04-06T13:20:55.005Z,8.40
2023-04-06T13:21:54.976Z,8.60
2023-04-06T13:41:12.210Z,10.10
2023-04-06T13:42:12.191Z,10.00
2023-04-06T13:43:12.160Z,8.30
2023-04-06T13:44:12.148Z,8.20
2023-04-06T13:45:12.149Z,8.20
2023-04-06T13:46:12.164Z,9.20
2023-04-06T13:47:12.113Z,7.40
